sensor_id;sensor_type;location;lat;lon;timestamp;pressure;altitude;pressure_sealevel;temperature;humidity
64827;BME280;51265;53.972;12.286;2023-05-29T00:01:38;101430.16;;;8.68;100.00
64827;BME280;51265;53.972;12.286;2023-05-29T00:04:06;101439.16;;;8.53;100.00
64827;BME280;51265;53.972;12.286;2023-05-29T00:06:32;101440.13;;;8.37;100.00
64827;BME280;51265;53.972;12.286;2023-05-29T00:08:58;101438.38;;;8.26;100.00
64827;BME280;51265;53.972;12.286;2023-05-29T00:11:25;101441.06;;;8.20;100.00
64827;BME280;51265;53.972;12.286;2023-05-29T00:13:51;101441.91;;;8.21;100.00
64827;BME280;51265;53.972;12.286;2023-05-29T00:16:17;101440.84;;;8.27;100.00
64827;BME280;51265;53.972;12.286;2023-05-29T00:18:44;101451.31;;;8.35;100.00
64827;BME280;51265;53.972;12.286;2023-05-29T00:21:13;101443.44;;;8.39;100.00
64827;BME280;51265;53.972;12.286;2023-05-29T00:23:40;101437.03;;;8.28;100.00
64827;BME280;51265;53.972;12.286;2023-05-29T00:26:06;101444.16;;;8.29;100.00
64827;BME280;51265;53.972;12.286;2023-05-29T00:28:34;101453.75;;;8.32;100.00
64827;BME280;51265;53.972;12.286;2023-05-29T00:31:00;101452.06;;;8.20;100.00
64827;BME280;51265;53.972;12.286;2023-05-29T00:33:27;101454.41;;;8.07;100.00
64827;BME280;51265;53.972;12.286;2023-05-29T00:35:53;101452.72;;;8.01;100.00
64827;BME280;51265;53.972;12.286;2023-05-29T00:38:19;101458.47;;;7.99;100.00
64827;BME280;51265;53.972;12.286;2023-05-29T00:40:46;101463.16;;;8.04;100.00
64827;BME280;51265;53.972;12.286;2023-05-29T00:43:12;101467.59;;;8.10;100.00
64827;BME280;51265;53.972;12.286;2023-05-29T00:45:44;101468.41;;;8.10;100.00
64827;BME280;51265;53.972;12.286;2023-05-29T00:48:11;101464.84;;;8.10;100.00
64827;BME280;51265;53.972;12.286;2023-05-29T00:50:37;101470.34;;;8.10;100.00
64827;BME280;51265;53.972;12.286;2023-05-29T00:53:04;101472.78;;;8.06;100.00
64827;BME280;51265;53.972;12.286;2023-05-29T00:55:32;101478.25;;;8.06;100.00
64827;BME280;51265;53.972;12.286;2023-05-29T00:57:59;101480.75;;;8.08;100.00
64827;BME280;51265;53.972;12.286;2023-05-29T01:00:25;101483.81;;;8.11;100.00
64827;BME280;51265;53.972;12.286;2023-05-29T01:02:52;101481.34;;;8.15;100.00
64827;BME280;51265;53.972;12.286;2023-05-29T01:05:19;101483.84;;;8.16;100.00
64827;BME280;51265;53.972;12.286;2023-05-29T01:07:45;101487.41;;;8.17;100.00
64827;BME280;51265;53.972;12.286;2023-05-29T01:10:12;101487.38;;;8.12;100.00
64827;BME280;51265;53.972;12.286;2023-05-29T01:12:47;101489.84;;;8.13;100.00
64827;BME280;51265;53.972;12.286;2023-05-29T01:15:33;101498.19;;;8.23;100.00
64827;BME280;51265;53.972;12.286;2023-05-29T01:18:31;101498.78;;;8.31;100.00
64827;BME280;51265;53.972;12.286;2023-05-29T01:21:08;101504.13;;;8.42;100.00
64827;BME280;51265;53.972;12.286;2023-05-29T01:26:45;101504.72;;;8.50;100.00
64827;BME280;51265;53.972;12.286;2023-05-29T01:29:18;101501.66;;;8.41;100.00
64827;BME280;51265;53.972;12.286;2023-05-29T01:31:47;101496.84;;;8.31;100.00
64827;BME280;51265;53.972;12.286;2023-05-29T01:34:15;101493.78;;;8.22;100.00
64827;BME280;51265;53.972;12.286;2023-05-29T01:36:48;101498.44;;;8.22;100.00
64827;BME280;51265;53.972;12.286;2023-05-29T01:39:14;101493.22;;;8.20;100.00
64827;BME280;51265;53.972;12.286;2023-05-29T01:41:43;101495.69;;;8.22;100.00
64827;BME280;51265;53.972;12.286;2023-05-29T01:44:12;101490.78;;;8.24;100.00
64827;BME280;51265;53.972;12.286;2023-05-29T01:46:40;101499.25;;;8.22;100.00
64827;BME280;51265;53.972;12.286;2023-05-29T01:49:08;101495.13;;;8.20;100.00
64827;BME280;51265;53.972;12.286;2023-05-29T01:51:35;101493.47;;;8.19;100.00
64827;BME280;51265;53.972;12.286;2023-05-29T01:54:01;101496.44;;;8.12;100.00
64827;BME280;51265;53.972;12.286;2023-05-29T01:56:28;101506.28;;;8.08;100.00
64827;BME280;51265;53.972;12.286;2023-05-29T01:58:56;101503.22;;;8.05;100.00
64827;BME280;51265;53.972;12.286;2023-05-29T02:01:23;101506.47;;;8.02;100.00
64827;BME280;51265;53.972;12.286;2023-05-29T02:03:49;101511.41;;;7.99;100.00
64827;BME280;51265;53.972;12.286;2023-05-29T02:06:16;101507.03;;;7.98;100.00
64827;BME280;51265;53.972;12.286;2023-05-29T02:08:43;101509.50;;;8.00;100.00
64827;BME280;51265;53.972;12.286;2023-05-29T02:11:09;101509.22;;;8.02;100.00
64827;BME280;51265;53.972;12.286;2023-05-29T02:13:35;101510.63;;;8.04;100.00
64827;BME280;51265;53.972;12.286;2023-05-29T02:16:01;101509.81;;;8.04;100.00
64827;BME280;51265;53.972;12.286;2023-05-29T02:18:28;101511.41;;;7.99;100.00
64827;BME280;51265;53.972;12.286;2023-05-29T02:20:54;101512.75;;;7.97;100.00
64827;BME280;51265;53.972;12.286;2023-05-29T02:23:21;101517.41;;;7.96;100.00
64827;BME280;51265;53.972;12.286;2023-05-29T02:25:50;101514.03;;;7.89;100.00
64827;BME280;51265;53.972;12.286;2023-05-29T02:28:31;101525.28;;;7.88;100.00
64827;BME280;51265;53.972;12.286;2023-05-29T02:30:58;101521.09;;;7.80;100.00
64827;BME280;51265;53.972;12.286;2023-05-29T02:33:24;101521.53;;;7.72;100.00
64827;BME280;51265;53.972;12.286;2023-05-29T02:35:53;101521.03;;;7.75;100.00
64827;BME280;51265;53.972;12.286;2023-05-29T02:38:20;101515.81;;;7.73;100.00
64827;BME280;51265;53.972;12.286;2023-05-29T02:40:46;101523.28;;;7.78;100.00
64827;BME280;51265;53.972;12.286;2023-05-29T02:43:13;101509.03;;;7.81;100.00
64827;BME280;51265;53.972;12.286;2023-05-29T02:45:39;101518.97;;;7.87;100.00
64827;BME280;51265;53.972;12.286;2023-05-29T02:48:05;101524.47;;;7.87;100.00
64827;BME280;51265;53.972;12.286;2023-05-29T02:50:32;101511.72;;;7.76;100.00
64827;BME280;51265;53.972;12.286;2023-05-29T02:52:58;101511.63;;;7.66;100.00
64827;BME280;51265;53.972;12.286;2023-05-29T02:55:24;101513.47;;;7.60;100.00
64827;BME280;51265;53.972;12.286;2023-05-29T02:57:51;101514.50;;;7.54;100.00
64827;BME280;51265;53.972;12.286;2023-05-29T03:00:19;101524.66;;;7.54;100.00
64827;BME280;51265;53.972;12.286;2023-05-29T03:02:46;101532.09;;;7.58;100.00
64827;BME280;51265;53.972;12.286;2023-05-29T03:05:13;101528.59;;;7.63;100.00
64827;BME280;51265;53.972;12.286;2023-05-29T03:07:39;101526.94;;;7.62;100.00
64827;BME280;51265;53.972;12.286;2023-05-29T03:10:05;101534.88;;;7.63;100.00
64827;BME280;51265;53.972;12.286;2023-05-29T03:12:32;101529.41;;;7.63;100.00
64827;BME280;51265;53.972;12.286;2023-05-29T03:14:59;101524.66;;;7.54;100.00
64827;BME280;51265;53.972;12.286;2023-05-29T03:17:27;101525.16;;;7.51;100.00
64827;BME280;51265;53.972;12.286;2023-05-29T03:19:56;101524.13;;;7.57;100.00
64827;BME280;51265;53.972;12.286;2023-05-29T03:22:23;101521.44;;;7.62;100.00
64827;BME280;51265;53.972;12.286;2023-05-29T03:24:49;101521.97;;;7.59;100.00
64827;BME280;51265;53.972;12.286;2023-05-29T03:27:17;101531.28;;;7.58;100.00
64827;BME280;51265;53.972;12.286;2023-05-29T03:29:45;101525.16;;;7.51;100.00
64827;BME280;51265;53.972;12.286;2023-05-29T03:32:11;101518.47;;;7.41;100.00
64827;BME280;51265;53.972;12.286;2023-05-29T03:34:37;101526.63;;;7.36;100.00
64827;BME280;51265;53.972;12.286;2023-05-29T03:37:05;101519.41;;;7.30;100.00
64827;BME280;51265;53.972;12.286;2023-05-29T03:39:32;101518.28;;;7.26;100.00
64827;BME280;51265;53.972;12.286;2023-05-29T03:41:58;101527.59;;;7.25;100.00
64827;BME280;51265;53.972;12.286;2023-05-29T03:44:25;101525.41;;;7.27;100.00
64827;BME280;51265;53.972;12.286;2023-05-29T03:46:51;101519.19;;;7.32;100.00
64827;BME280;51265;53.972;12.286;2023-05-29T03:49:17;101531.22;;;7.31;100.00
64827;BME280;51265;53.972;12.286;2023-05-29T03:51:44;101534.22;;;7.29;100.00
64827;BME280;51265;53.972;12.286;2023-05-29T03:54:10;101532.56;;;7.28;100.00
64827;BME280;51265;53.972;12.286;2023-05-29T03:56:37;101531.22;;;7.31;100.00
64827;BME280;51265;53.972;12.286;2023-05-29T03:59:04;101538.66;;;7.35;100.00
64827;BME280;51265;53.972;12.286;2023-05-29T04:01:31;101540.41;;;7.41;100.00
64827;BME280;51265;53.972;12.286;2023-05-29T04:03:58;101529.50;;;7.46;100.00
64827;BME280;51265;53.972;12.286;2023-05-29T04:06:24;101539.94;;;7.49;100.00
64827;BME280;51265;53.972;12.286;2023-05-29T04:08:50;101535.34;;;7.55;100.00
64827;BME280;51265;53.972;12.286;2023-05-29T04:11:17;101538.41;;;7.59;100.00
64827;BME280;51265;53.972;12.286;2023-05-29T04:13:43;101539.59;;;7.68;100.00
64827;BME280;51265;53.972;12.286;2023-05-29T04:16:10;101542.97;;;7.75;100.00
64827;BME280;51265;53.972;12.286;2023-05-29T04:18:37;101541.38;;;7.79;100.00
64827;BME280;51265;53.972;12.286;2023-05-29T04:21:04;101548.56;;;7.85;100.00
64827;BME280;51265;53.972;12.286;2023-05-29T04:23:32;101550.84;;;7.93;100.00
64827;BME280;51265;53.972;12.286;2023-05-29T04:25:58;101546.31;;;8.04;100.00
64827;BME280;51265;53.972;12.286;2023-05-29T04:28:27;101549.41;;;8.13;100.00
64827;BME280;51265;53.972;12.286;2023-05-29T04:30:55;101557.47;;;8.24;100.00
64827;BME280;51265;53.972;12.286;2023-05-29T04:33:23;101557.25;;;8.31;100.00
64827;BME280;51265;53.972;12.286;2023-05-29T04:35:51;101562.28;;;8.39;100.00
64827;BME280;51265;53.972;12.286;2023-05-29T04:38:18;101559.66;;;8.50;100.00
64827;BME280;51265;53.972;12.286;2023-05-29T04:40:51;101556.97;;;8.60;100.00
64827;BME280;51265;53.972;12.286;2023-05-29T04:43:19;101557.59;;;8.72;100.00
64827;BME280;51265;53.972;12.286;2023-05-29T04:45:59;101564.56;;;8.85;100.00
64827;BME280;51265;53.972;12.286;2023-05-29T04:48:26;101561.34;;;8.98;100.00
64827;BME280;51265;53.972;12.286;2023-05-29T04:50:52;101562.53;;;9.12;100.00
64827;BME280;51265;53.972;12.286;2023-05-29T04:53:19;101568.69;;;9.30;100.00
64827;BME280;51265;53.972;12.286;2023-05-29T04:55:45;101569.00;;;9.43;100.00
64827;BME280;51265;53.972;12.286;2023-05-29T04:58:11;101569.63;;;9.61;100.00
64827;BME280;51265;53.972;12.286;2023-05-29T05:00:40;101560.91;;;9.74;100.00
64827;BME280;51265;53.972;12.286;2023-05-29T05:03:06;101566.44;;;9.89;100.00
64827;BME280;51265;53.972;12.286;2023-05-29T05:05:33;101560.69;;;10.01;100.00
64827;BME280;51265;53.972;12.286;2023-05-29T05:08:01;101549.41;;;10.13;100.00
64827;BME280;51265;53.972;12.286;2023-05-29T05:10:28;101554.94;;;10.23;100.00
64827;BME280;51265;53.972;12.286;2023-05-29T05:12:55;101546.69;;;10.28;100.00
64827;BME280;51265;53.972;12.286;2023-05-29T05:15:22;101537.88;;;10.36;100.00
64827;BME280;51265;53.972;12.286;2023-05-29T05:17:48;101549.47;;;10.48;100.00
64827;BME280;51265;53.972;12.286;2023-05-29T05:20:14;101546.69;;;10.69;100.00
64827;BME280;51265;53.972;12.286;2023-05-29T05:22:41;101552.19;;;10.89;100.00
64827;BME280;51265;53.972;12.286;2023-05-29T05:25:07;101536.75;;;10.88;100.00
64827;BME280;51265;53.972;12.286;2023-05-29T05:27:33;101531.00;;;10.80;100.00
64827;BME280;51265;53.972;12.286;2023-05-29T05:30:03;101529.03;;;10.90;100.00
64827;BME280;51265;53.972;12.286;2023-05-29T05:32:30;101521.03;;;10.94;100.00
64827;BME280;51265;53.972;12.286;2023-05-29T05:35:03;101517.44;;;10.93;100.00
64827;BME280;51265;53.972;12.286;2023-05-29T05:37:29;101527.03;;;11.21;100.00
64827;BME280;51265;53.972;12.286;2023-05-29T05:39:56;101518.47;;;11.23;100.00
64827;BME280;51265;53.972;12.286;2023-05-29T05:42:24;101512.06;;;11.33;100.00
64827;BME280;51265;53.972;12.286;2023-05-29T05:44:56;101511.50;;;11.36;100.00
64827;BME280;51265;53.972;12.286;2023-05-29T05:47:22;101502.63;;;11.49;100.00
64827;BME280;51265;53.972;12.286;2023-05-29T05:49:49;101505.63;;;11.53;100.00
64827;BME280;51265;53.972;12.286;2023-05-29T05:52:18;101489.69;;;11.50;100.00
64827;BME280;51265;53.972;12.286;2023-05-29T05:54:46;101494.50;;;11.73;100.00
64827;BME280;51265;53.972;12.286;2023-05-29T05:57:13;101490.31;;;11.81;100.00
64827;BME280;51265;53.972;12.286;2023-05-29T05:59:39;101480.91;;;11.82;99.83
64827;BME280;51265;53.972;12.286;2023-05-29T06:02:06;101480.53;;;11.99;98.06
64827;BME280;51265;53.972;12.286;2023-05-29T06:04:32;101477.78;;;11.99;96.73
64827;BME280;51265;53.972;12.286;2023-05-29T06:06:59;101471.09;;;12.10;95.46
64827;BME280;51265;53.972;12.286;2023-05-29T06:09:25;101470.56;;;12.03;94.69
64827;BME280;51265;53.972;12.286;2023-05-29T06:11:52;101467.94;;;11.82;93.91
64827;BME280;51265;53.972;12.286;2023-05-29T06:14:19;101471.22;;;11.89;94.28
64827;BME280;51265;53.972;12.286;2023-05-29T06:16:45;101482.94;;;12.10;94.89
64827;BME280;51265;53.972;12.286;2023-05-29T06:19:11;101472.09;;;12.19;94.55
64827;BME280;51265;53.972;12.286;2023-05-29T06:21:52;101488.38;;;12.55;94.04
64827;BME280;51265;53.972;12.286;2023-05-29T06:24:19;101477.81;;;12.86;93.06
64827;BME280;51265;53.972;12.286;2023-05-29T06:26:45;101475.81;;;12.38;91.91
64827;BME280;51265;53.972;12.286;2023-05-29T06:29:13;101467.28;;;12.01;91.76
64827;BME280;51265;53.972;12.286;2023-05-29T06:31:39;101466.97;;;11.63;92.91
64827;BME280;51265;53.972;12.286;2023-05-29T06:34:05;101476.91;;;11.64;92.98
64827;BME280;51265;53.972;12.286;2023-05-29T06:36:32;101482.00;;;11.36;92.69
64827;BME280;51265;53.972;12.286;2023-05-29T06:38:58;101483.16;;;11.25;93.24
64827;BME280;51265;53.972;12.286;2023-05-29T06:41:24;101493.47;;;11.59;93.62
64827;BME280;51265;53.972;12.286;2023-05-29T06:43:51;101493.31;;;11.89;93.72
64827;BME280;51265;53.972;12.286;2023-05-29T06:46:18;101491.44;;;12.19;92.13
64827;BME280;51265;53.972;12.286;2023-05-29T06:48:44;101495.34;;;12.76;92.54
64827;BME280;51265;53.972;12.286;2023-05-29T06:51:11;101496.53;;;13.18;91.20
64827;BME280;51265;53.972;12.286;2023-05-29T06:53:41;101490.38;;;13.26;89.62
64827;BME280;51265;53.972;12.286;2023-05-29T06:56:09;101485.22;;;13.14;89.03
64827;BME280;51265;53.972;12.286;2023-05-29T06:58:36;101474.75;;;13.11;89.03
64827;BME280;51265;53.972;12.286;2023-05-29T07:01:02;101478.53;;;12.96;89.11
64827;BME280;51265;53.972;12.286;2023-05-29T07:03:31;101484.88;;;12.73;89.99
64827;BME280;51265;53.972;12.286;2023-05-29T07:05:58;101489.31;;;12.69;90.32
64827;BME280;51265;53.972;12.286;2023-05-29T07:08:25;101507.09;;;12.87;90.64
64827;BME280;51265;53.972;12.286;2023-05-29T07:10:52;101497.91;;;12.38;89.97
64827;BME280;51265;53.972;12.286;2023-05-29T07:13:20;101495.97;;;12.05;91.08
64827;BME280;51265;53.972;12.286;2023-05-29T07:15:50;101505.84;;;12.11;91.40
64827;BME280;51265;53.972;12.286;2023-05-29T07:18:18;101511.19;;;12.36;91.32
64827;BME280;51265;53.972;12.286;2023-05-29T07:20:45;101498.94;;;12.48;89.48
64827;BME280;51265;53.972;12.286;2023-05-29T07:23:14;101489.25;;;12.79;88.69
64827;BME280;51265;53.972;12.286;2023-05-29T07:25:40;101483.81;;;12.69;87.45
64827;BME280;51265;53.972;12.286;2023-05-29T07:28:06;101476.72;;;12.58;86.42
64827;BME280;51265;53.972;12.286;2023-05-29T07:30:32;101479.78;;;12.56;86.13
64827;BME280;51265;53.972;12.286;2023-05-29T07:32:59;101470.63;;;12.61;84.57
64827;BME280;51265;53.972;12.286;2023-05-29T07:35:25;101473.16;;;12.81;84.00
64827;BME280;51265;53.972;12.286;2023-05-29T07:37:52;101474.75;;;12.87;83.10
64827;BME280;51265;53.972;12.286;2023-05-29T07:40:22;101472.59;;;12.84;82.56
64827;BME280;51265;53.972;12.286;2023-05-29T07:42:57;101468.22;;;12.78;82.07
64827;BME280;51265;53.972;12.286;2023-05-29T07:45:27;101464.22;;;12.65;81.61
64827;BME280;51265;53.972;12.286;2023-05-29T07:47:53;101471.47;;;12.85;80.66
64827;BME280;51265;53.972;12.286;2023-05-29T07:50:19;101475.22;;;13.18;80.70
64827;BME280;51265;53.972;12.286;2023-05-29T07:52:46;101467.34;;;13.31;80.01
64827;BME280;51265;53.972;12.286;2023-05-29T07:55:12;101458.16;;;13.35;78.93
64827;BME280;51265;53.972;12.286;2023-05-29T07:57:39;101463.41;;;13.56;79.14
64827;BME280;51265;53.972;12.286;2023-05-29T08:00:06;101451.88;;;13.49;78.05
64827;BME280;51265;53.972;12.286;2023-05-29T08:02:35;101467.59;;;13.34;79.44
64827;BME280;51265;53.972;12.286;2023-05-29T08:05:20;101469.09;;;13.45;79.05
64827;BME280;51265;53.972;12.286;2023-05-29T08:07:46;101484.81;;;13.69;79.52
64827;BME280;51265;53.972;12.286;2023-05-29T08:10:14;101474.06;;;13.67;79.20
64827;BME280;51265;53.972;12.286;2023-05-29T08:12:40;101487.94;;;14.00;78.99
64827;BME280;51265;53.972;12.286;2023-05-29T08:15:07;101460.22;;;13.67;77.18
64827;BME280;51265;53.972;12.286;2023-05-29T08:17:35;101467.25;;;13.60;77.53
64827;BME280;51265;53.972;12.286;2023-05-29T08:20:01;101483.59;;;13.75;77.93
64827;BME280;51265;53.972;12.286;2023-05-29T08:22:32;101456.25;;;13.55;76.23
64827;BME280;51265;53.972;12.286;2023-05-29T08:24:59;101456.53;;;13.72;76.07
64827;BME280;51265;53.972;12.286;2023-05-29T08:27:26;101465.81;;;13.81;76.00
64827;BME280;51265;53.972;12.286;2023-05-29T08:29:52;101471.34;;;14.33;75.87
64827;BME280;51265;53.972;12.286;2023-05-29T08:32:20;101453.00;;;13.48;75.74
64827;BME280;51265;53.972;12.286;2023-05-29T08:34:47;101462.34;;;13.33;76.55
64827;BME280;51265;53.972;12.286;2023-05-29T08:37:14;101449.56;;;13.37;75.97
64827;BME280;51265;53.972;12.286;2023-05-29T08:39:40;101451.28;;;13.33;75.67
64827;BME280;51265;53.972;12.286;2023-05-29T08:42:13;101454.47;;;13.21;76.03
64827;BME280;51265;53.972;12.286;2023-05-29T08:44:46;101472.00;;;13.35;76.44
64827;BME280;51265;53.972;12.286;2023-05-29T08:47:16;101479.72;;;13.76;76.67
64827;BME280;51265;53.972;12.286;2023-05-29T08:49:52;101464.72;;;14.15;75.39
64827;BME280;51265;53.972;12.286;2023-05-29T08:52:22;101455.91;;;14.13;74.24
64827;BME280;51265;53.972;12.286;2023-05-29T08:54:49;101431.91;;;13.70;73.47
64827;BME280;51265;53.972;12.286;2023-05-29T08:57:15;101442.78;;;13.67;74.36
64827;BME280;51265;53.972;12.286;2023-05-29T08:59:43;101438.44;;;13.61;73.44
64827;BME280;51265;53.972;12.286;2023-05-29T09:02:10;101456.66;;;14.00;73.83
64827;BME280;51265;53.972;12.286;2023-05-29T09:04:38;101440.13;;;13.94;72.21
64827;BME280;51265;53.972;12.286;2023-05-29T09:07:06;101447.84;;;13.98;73.01
64827;BME280;51265;53.972;12.286;2023-05-29T09:09:34;101438.56;;;13.88;72.41
64827;BME280;51265;53.972;12.286;2023-05-29T09:12:00;101450.38;;;14.13;72.30
64827;BME280;51265;53.972;12.286;2023-05-29T09:14:40;101415.78;;;13.59;70.68
64827;BME280;51265;53.972;12.286;2023-05-29T09:17:07;101442.44;;;13.87;71.77
64827;BME280;51265;53.972;12.286;2023-05-29T09:19:35;101443.06;;;13.84;71.45
64827;BME280;51265;53.972;12.286;2023-05-29T09:22:06;101450.84;;;13.82;70.38
64827;BME280;51265;53.972;12.286;2023-05-29T09:24:34;101477.31;;;14.07;71.39
64827;BME280;51265;53.972;12.286;2023-05-29T09:27:02;101475.03;;;14.28;69.52
64827;BME280;51265;53.972;12.286;2023-05-29T09:29:48;101435.13;;;13.97;65.89
64827;BME280;51265;53.972;12.286;2023-05-29T09:32:18;101443.63;;;14.00;67.03
64827;BME280;51265;53.972;12.286;2023-05-29T09:34:44;101418.69;;;14.00;64.61
64827;BME280;51265;53.972;12.286;2023-05-29T09:37:11;101446.03;;;14.07;66.30
64827;BME280;51265;53.972;12.286;2023-05-29T09:42:07;101424.88;;;14.30;65.26
64827;BME280;51265;53.972;12.286;2023-05-29T09:44:34;101415.19;;;14.27;64.73
64827;BME280;51265;53.972;12.286;2023-05-29T09:47:00;101411.69;;;14.68;62.46
64827;BME280;51265;53.972;12.286;2023-05-29T09:49:27;101418.16;;;14.77;63.44
64827;BME280;51265;53.972;12.286;2023-05-29T09:51:54;101406.53;;;14.75;62.40
64827;BME280;51265;53.972;12.286;2023-05-29T09:54:21;101391.75;;;14.66;61.58
64827;BME280;51265;53.972;12.286;2023-05-29T09:56:47;101413.22;;;15.02;62.82
64827;BME280;51265;53.972;12.286;2023-05-29T09:59:15;101389.19;;;14.69;61.81
64827;BME280;51265;53.972;12.286;2023-05-29T10:01:42;101405.00;;;14.83;62.15
64827;BME280;51265;53.972;12.286;2023-05-29T10:04:10;101401.91;;;15.12;61.81
64827;BME280;51265;53.972;12.286;2023-05-29T10:06:38;101407.38;;;15.53;61.70
64827;BME280;51265;53.972;12.286;2023-05-29T10:09:08;101379.22;;;15.10;60.53
64827;BME280;51265;53.972;12.286;2023-05-29T10:11:37;101361.75;;;14.95;59.98
64827;BME280;51265;53.972;12.286;2023-05-29T10:14:05;101365.91;;;14.84;60.32
64827;BME280;51265;53.972;12.286;2023-05-29T10:16:35;101366.28;;;15.05;60.09
64827;BME280;51265;53.972;12.286;2023-05-29T10:19:12;101396.94;;;15.59;60.12
64827;BME280;51265;53.972;12.286;2023-05-29T10:21:40;101349.41;;;15.38;58.04
64827;BME280;51265;53.972;12.286;2023-05-29T10:24:07;101366.41;;;15.36;58.40
64827;BME280;51265;53.972;12.286;2023-05-29T10:26:38;101350.81;;;15.49;58.09
64827;BME280;51265;53.972;12.286;2023-05-29T10:29:22;101339.78;;;15.58;56.38
64827;BME280;51265;53.972;12.286;2023-05-29T10:34:47;101367.81;;;15.92;57.41
64827;BME280;51265;53.972;12.286;2023-05-29T10:37:40;101343.47;;;15.67;57.40
64827;BME280;51265;53.972;12.286;2023-05-29T10:40:10;101352.00;;;15.71;57.18
64827;BME280;51265;53.972;12.286;2023-05-29T10:42:47;101356.84;;;16.10;56.18
64827;BME280;51265;53.972;12.286;2023-05-29T10:50:46;101360.84;;;17.40;55.03
64827;BME280;51265;53.972;12.286;2023-05-29T10:53:24;101330.06;;;17.46;53.63
64827;BME280;51265;53.972;12.286;2023-05-29T10:55:53;101336.13;;;17.39;54.25
64827;BME280;51265;53.972;12.286;2023-05-29T10:58:22;101309.09;;;17.57;52.50
64827;BME280;51265;53.972;12.286;2023-05-29T11:00:50;101310.41;;;17.33;53.03
64827;BME280;51265;53.972;12.286;2023-05-29T11:03:23;101288.13;;;16.81;53.22
64827;BME280;51265;53.972;12.286;2023-05-29T11:06:17;101312.53;;;17.28;53.38
64827;BME280;51265;53.972;12.286;2023-05-29T11:08:48;101300.38;;;17.58;52.64
64827;BME280;51265;53.972;12.286;2023-05-29T11:13:55;101269.13;;;17.53;51.16
64827;BME280;51265;53.972;12.286;2023-05-29T11:18:55;101231.34;;;16.91;50.08
64827;BME280;51265;53.972;12.286;2023-05-29T11:21:33;101274.69;;;17.53;50.96
64827;BME280;51265;53.972;12.286;2023-05-29T11:24:01;101272.28;;;18.07;49.57
64827;BME280;51265;53.972;12.286;2023-05-29T11:26:37;101268.91;;;18.22;48.71
64827;BME280;51265;53.972;12.286;2023-05-29T11:29:04;101244.53;;;17.55;49.57
64827;BME280;51265;53.972;12.286;2023-05-29T11:31:33;101271.00;;;17.96;49.85
64827;BME280;51265;53.972;12.286;2023-05-29T11:34:01;101291.84;;;18.36;49.72
64827;BME280;51265;53.972;12.286;2023-05-29T11:36:33;101258.69;;;17.97;49.52
64827;BME280;51265;53.972;12.286;2023-05-29T11:39:00;101238.53;;;18.00;48.39
64827;BME280;51265;53.972;12.286;2023-05-29T11:41:27;101274.44;;;18.39;48.93
64827;BME280;51265;53.972;12.286;2023-05-29T11:44:00;101274.13;;;18.32;49.76
64827;BME280;51265;53.972;12.286;2023-05-29T11:46:28;101254.28;;;17.96;49.44
64827;BME280;51265;53.972;12.286;2023-05-29T11:48:59;101259.53;;;17.88;49.95
64827;BME280;51265;53.972;12.286;2023-05-29T11:51:25;101274.13;;;18.32;49.95
64827;BME280;51265;53.972;12.286;2023-05-29T11:53:52;101265.28;;;18.30;48.39
64827;BME280;51265;53.972;12.286;2023-05-29T11:56:25;101286.25;;;18.96;48.31
64827;BME280;51265;53.972;12.286;2023-05-29T11:58:52;101257.81;;;18.81;47.32
64827;BME280;51265;53.972;12.286;2023-05-29T12:01:23;101292.38;;;19.10;48.34
64827;BME280;51265;53.972;12.286;2023-05-29T12:03:51;101282.16;;;18.93;48.52
64827;BME280;51265;53.972;12.286;2023-05-29T12:06:34;101275.50;;;18.85;48.99
64827;BME280;51265;53.972;12.286;2023-05-29T12:09:02;101243.94;;;18.34;48.06
64827;BME280;51265;53.972;12.286;2023-05-29T12:11:29;101236.25;;;18.02;47.78
64827;BME280;51265;53.972;12.286;2023-05-29T12:13:59;101265.00;;;17.85;49.89
64827;BME280;51265;53.972;12.286;2023-05-29T12:16:30;101265.59;;;17.99;49.47
64827;BME280;51265;53.972;12.286;2023-05-29T12:18:59;101284.69;;;18.56;48.94
64827;BME280;51265;53.972;12.286;2023-05-29T12:21:27;101282.13;;;18.72;47.80
64827;BME280;51265;53.972;12.286;2023-05-29T12:23:54;101294.94;;;18.73;49.67
64827;BME280;51265;53.972;12.286;2023-05-29T12:26:24;101336.75;;;19.86;49.06
64827;BME280;51265;53.972;12.286;2023-05-29T12:28:52;101314.56;;;20.14;47.38
64827;BME280;51265;53.972;12.286;2023-05-29T12:31:28;101294.88;;;20.48;45.75
64827;BME280;51265;53.972;12.286;2023-05-29T12:34:00;101255.66;;;19.74;46.79
64827;BME280;51265;53.972;12.286;2023-05-29T12:36:27;101248.25;;;19.57;46.03
64827;BME280;51265;53.972;12.286;2023-05-29T12:38:53;101237.41;;;19.56;45.53
64827;BME280;51265;53.972;12.286;2023-05-29T12:41:26;101215.97;;;19.48;44.61
64827;BME280;51265;53.972;12.286;2023-05-29T12:43:54;101243.44;;;19.46;46.22
64827;BME280;51265;53.972;12.286;2023-05-29T12:46:21;101293.03;;;20.15;46.92
64827;BME280;51265;53.972;12.286;2023-05-29T12:48:47;101311.47;;;21.42;45.06
64827;BME280;51265;53.972;12.286;2023-05-29T12:51:13;101240.09;;;20.71;43.94
64827;BME280;51265;53.972;12.286;2023-05-29T12:53:40;101211.31;;;19.52;44.60
64827;BME280;51265;53.972;12.286;2023-05-29T12:56:06;101296.28;;;20.42;46.58
64827;BME280;51265;53.972;12.286;2023-05-29T12:58:32;101294.22;;;21.84;43.99
64827;BME280;51265;53.972;12.286;2023-05-29T13:00:58;101304.41;;;23.03;42.69
64827;BME280;51265;53.972;12.286;2023-05-29T13:03:24;101270.78;;;23.45;40.76
64827;BME280;51265;53.972;12.286;2023-05-29T13:05:51;101226.00;;;22.43;41.21